METAR Data
IDs: Format: Raw Decoded Include TAF

Data at: 0302 UTC 18 Jun 2019

PATQ 180256Z AUTO 07012KT 10SM CLR 09/01 A3006 RMK AO2 SLP188 T00890011 56006 TSNO
PATQ 180156Z AUTO 09011KT 10SM CLR 08/02 A3007 RMK AO2 SLP190 T00830017 TSNO
PATQ 180056Z AUTO 06008KT 10SM CLR 08/02 A3008 RMK AO2 SLP192 T00830017 TSNO
PATQ 172356Z AUTO 09011KT 10SM CLR 08/02 A3008 RMK AO2 SLP194 60000 T00830017 10083 20011 56006 TSNO
PATQ 172256Z AUTO 07010KT 10SM CLR 07/02 A3009 RMK AO2 SLP196 T00720017 TSNO
PATQ 172156Z AUTO 09008KT 10SM CLR 07/01 A3009 RMK AO2 SLP197 T00670006 TSNO
PATQ 172056Z AUTO 05009KT 10SM CLR 05/01 A3010 RMK AO2 SLP201 60000 T00500006 50000 TSNO
PATQ 171956Z AUTO 07006KT 10SM CLR 03/M01 A3011 RMK AO2 RAB31E42 SLP201 P0000 T00331006 TSNO
PATQ 171917Z AUTO 07009KT 10SM SCT009 03/00 A3011 RMK AO2 TSNO
PATQ 171856Z AUTO 07007KT 10SM BKN009 03/M01 A3010 RMK AO2 RAB08E10UPB35E51SNB10E35 SLP201 P0000 T00281006 TSNO
PATQ 171833Z AUTO 06008KT 9SM -SN BKN007 02/M01 A3010 RMK AO2 RAB08E10SNB10 CIG 004V009 P0000 FZRANO TSNO
PATQ 171817Z AUTO 07008KT 9SM -SN OVC005 02/00 A3010 RMK AO2 RAB08E10SNB10 CIG 004V008 P0000 FZRANO TSNO
PATQ 171808Z AUTO 06007KT 10SM -RA OVC007 02/M01 A3010 RMK AO2 RAB08 CIG 004V008 P0000 FZRANO TSNO
PATQ 171756Z AUTO 08011KT 10SM OVC005 01/M01 A3010 RMK AO2 RAB26E28SNB28E39 CIG 003V008 SLP200 P0000 60000 T00111006 10011 21006 51009 FZRANO TSNO
PATQ 171722Z AUTO 06009KT 9SM OVC005 01/00 A3010 RMK AO2 FZRANO TSNO
PATQ 171656Z AUTO 07008KT 10SM OVC003 01/00 A3009 RMK AO2 CIG 001V006 SLP198 T00060000 FZRANO TSNO
PATQ 171639Z AUTO 08011KT 2 1/2SM BR OVC003 01/M01 A3009 RMK AO2 CIG 001V006 FZRANO TSNO
PATQ 171627Z AUTO 06010KT 3SM BR OVC003 01/00 A3009 RMK AO2 CIG 002V007 FZRANO TSNO
PATQ 171556Z AUTO 05009KT 1 1/2SM BR OVC003 00/M01 A3009 RMK AO2 CIG 003V008 SLP195 T00001006 FZRANO TSNO
PATQ 171547Z AUTO 07009KT 1 1/2SM BR OVC003 01/00 A3008 RMK AO2 FZRANO TSNO
PATQ 171544Z AUTO 07011KT 3/4SM BR OVC003 00/M01 A3008 RMK AO2 CIG 003V007 FZRANO TSNO
PATQ 171533Z AUTO 06010KT 1/2SM FG OVC003 00/M01 A3008 RMK AO2 CIG 002V007 FZRANO TSNO
PATQ 171526Z AUTO 05007KT 3/4SM BR OVC003 00/M01 A3008 RMK AO2 FZRANO TSNO
PATQ 171516Z AUTO 06008KT 1 1/4SM BR OVC003 00/M01 A3008 RMK AO2 CIG 001V008 FZRANO TSNO
PATQ 171456Z AUTO 06009KT 3/4SM BR OVC003 00/M01 A3007 RMK AO2 VIS 1/4V4 CIG 001V007 SLP191 60000 T00001006 51009 FZRANO TSNO
PATQ 171453Z AUTO 04010KT 3/4SM BR OVC003 00/M01 A3008 RMK AO2 VIS 1/4V5 CIG 001V007 FZRANO TSNO
PATQ 171449Z AUTO 04008KT 1 1/2SM BR BKN003 00/M01 A3008 RMK AO2 CIG 001V007 FZRANO TSNO
PATQ 171446Z AUTO 05009KT 4SM BR BKN003 00/00 A3008 RMK AO2 CIG 001V007 FZRANO TSNO
PATQ 171444Z AUTO 06009KT 1 1/4SM BR BKN003 00/00 A3007 RMK AO2 CIG 002V007 FZRANO TSNO
PATQ 171432Z AUTO 06010KT 3/4SM BR OVC003 00/M01 A3007 RMK AO2 CIG 002V006 FZRANO TSNO
PATQ 171422Z AUTO 05008KT 1/4SM FG OVC003 00/M01 A3007 RMK AO2 FZRANO TSNO
PATQ 171358Z AUTO 05009KT 1/2SM FZFG OVC003 M01/M01 A3007 RMK AO2 VIS 1/4V5 FZRANO TSNO
PATQ 171356Z AUTO 05009KT 1SM BR OVC003 M01/M01 A3007 RMK AO2 VIS 1/4V5 UPE12 SLP189 P0000 T10061006 FZRANO TSNO
PATQ 171354Z AUTO 06009KT 1 1/4SM BR OVC003 M01/M01 A3007 RMK AO2 VIS 1/2V5 UPE12 P0000 FZRANO TSNO
PATQ 171344Z AUTO 04009KT 3/4SM BR OVC003 M01/M01 A3007 RMK AO2 VIS 1/4V3 UPE12 P0000 FZRANO TSNO
PATQ 171336Z AUTO 06011KT 1 3/4SM BR OVC003 00/M01 A3006 RMK AO2 VIS 1/2V5 UPE12 CIG 002V007 P0000 FZRANO TSNO
PATQ 171331Z AUTO 06011KT 3SM BR OVC003 M01/M01 A3006 RMK AO2 UPE12 P0000 FZRANO TSNO
PATQ 171320Z AUTO 06011KT 1 1/4SM BR OVC003 M01/M01 A3006 RMK AO2 VIS 3/4V4 UPE12 P0000 FZRANO TSNO
PATQ 171317Z AUTO 05012KT 3/4SM BR OVC003 00/M01 A3006 RMK AO2 VIS 1/4V2 1/2 UPE12 P0000 FZRANO TSNO
PATQ 171256Z AUTO 07010KT 1/4SM UP FG OVC003 00/M01 A3006 RMK AO2 UPB1158E14B50 SLP186 P0000 T00001006 FZRANO TSNO
PATQ 171249Z AUTO 06010KT 1/2SM FG OVC003 00/M01 A3006 RMK AO2 UPB1158E14 P0000 FZRANO TSNO
PATQ 171247Z AUTO 07011KT 1 1/4SM BR OVC003 00/M01 A3006 RMK AO2 UPB1158E14 P0000 FZRANO TSNO
PATQ 171242Z AUTO 08011KT 3SM BR OVC003 00/M01 A3006 RMK AO2 UPB1158E14 P0000 FZRANO TSNO
PATQ 171240Z AUTO 08012KT 3/4SM BR OVC003 00/M01 A3006 RMK AO2 VIS 1/4V5 UPB1158E14 P0000 FZRANO TSNO
PATQ 171234Z AUTO 06013KT 1/4SM FG OVC003 00/00 A3006 RMK AO2 UPB1158E14 P0000 FZRANO TSNO
PATQ 171204Z AUTO 06012KT 1/2SM UP FG OVC003 00/00 A3005 RMK AO2 UPB1158 P0000 FZRANO TSNO
PATQ 171156Z AUTO 08013KT 3/4SM BR OVC003 00/M01 A3005 RMK AO2 SLP181 T00001006 10028 20000 51006 FZRANO TSNO
PATQ 171136Z AUTO 07012KT 1 1/2SM BR OVC003 01/00 A3005 RMK AO2 VIS 1/4V5 FZRANO TSNO
PATQ 171127Z AUTO 06014KT 3/4SM BR OVC003 01/00 A3005 RMK AO2 FZRANO TSNO
PATQ 171121Z AUTO 07011KT 1 3/4SM BR OVC003 01/00 A3005 RMK AO2 FZRANO TSNO
PATQ 171110Z AUTO 08013KT 3SM BR OVC003 01/00 A3005 RMK AO2 FZRANO TSNO
PATQ 171106Z AUTO 07014KT 1 1/4SM BR OVC003 01/00 A3004 RMK AO2 VIS 1/2V5 FZRANO TSNO
PATQ 171056Z AUTO 05015KT 3/4SM BR OVC003 01/01 A3004 RMK AO2 VIS 1/4V5 SLP181 T00060006 FZRANO TSNO
PATQ 171039Z AUTO 06014KT 1 3/4SM BR OVC003 01/01 A3004 RMK AO2 FZRANO TSNO
PATQ 170956Z AUTO 05016KT 10SM OVC003 01/01 A3003 RMK AO2 SLP177 T00110006 FZRANO TSNO
PATQ 170952Z AUTO 05016KT 10SM OVC003 01/01 A3003 RMK AO2 FZRANO TSNO
PATQ 170924Z AUTO 05014KT 10SM OVC005 02/01 A3003 RMK AO2 FZRANO TSNO
PATQ 170856Z AUTO 05014KT 10SM OVC007 02/01 A3002 RMK AO2 SLP173 T00170006 401390017 53015 FZRANO TSNO
PATQ 170830Z AUTO 05015KT 10SM OVC007 02/01 A3001 RMK AO2 FZRANO TSNO
PATQ 170804Z AUTO 06013KT 10SM OVC005 02/01 A3000 RMK AO2 FZRANO TSNO
PATQ 170756Z AUTO 06016KT 10SM OVC003 02/01 A3000 RMK AO2 SLP167 T00220011 FZRANO TSNO
PATQ 170656Z AUTO 05019KT 10SM OVC003 02/02 A2999 RMK AO2 SLP162 T00220017 FZRANO TSNO
PATQ 170556Z AUTO 04017KT 10SM OVC003 03/02 A2997 RMK AO2 SLP158 T00280022 10128 20028 51011 TSNO
PATQ 170517Z AUTO 04017KT 10SM OVC003 04/03 A2997 RMK AO2 TSNO
PATQ 170456Z AUTO 03015KT 10SM OVC005 05/03 A2996 RMK AO2 CIG 004V008 SLP153 T00500033 TSNO
PATQ 170452Z AUTO 03015KT 10SM BKN005 05/04 A2996 RMK AO2 CIG 004V008 TSNO
PATQ 170445Z AUTO 02016KT 10SM BKN007 05/04 A2996 RMK AO2 TSNO
PATQ 170413Z AUTO 03014KT 10SM FEW009 07/04 A2994 RMK AO2 TSNO
PATQ 170356Z AUTO 03014KT 10SM FEW013 08/05 A2994 RMK AO2 SLP146 T00830050 TSNO
PATQ 170256Z AUTO 01013KT 10SM CLR 09/05 A2993 RMK AO2 SLP143 T00940050 55001 TSNO
PATQ 170156Z AUTO 33012KT 10SM CLR 09/04 A2993 RMK AO2 SLP141 T00890039 TSNO
PATQ 170056Z AUTO 32010KT 10SM CLR 12/05 A2993 RMK AO2 SLP142 T01170050 TSNO
PATQ 162356Z AUTO 31010KT 10SM CLR 12/01 A2994 RMK AO2 SLP145 T01220011 10139 20117 55004 TSNO
PATQ 162256Z AUTO 32010KT 10SM CLR 12/03 A2993 RMK AO2 SLP143 T01220028 TSNO
PATQ 162156Z AUTO 30009KT 10SM CLR 13/04 A2994 RMK AO2 SLP146 T01330039 TSNO
PATQ 162056Z AUTO 30007KT 10SM CLR 13/04 A2995 RMK AO2 SLP148 T01330044 57005 TSNO
PATQ 161956Z AUTO 29007KT 10SM CLR 12/03 A2995 RMK AO2 SLP150 T01220033 TSNO
PATQ 161856Z AUTO 28006KT 10SM BKN110 12/03 A2995 RMK AO2 SLP150 T01220028 TSNO
PATQ 161756Z AUTO 26007KT 10SM SCT044 12/03 A2996 RMK AO2 SLP153 T01220028 10122 20061 58006 TSNO
PATQ 161656Z AUTO 24007KT 10SM SCT046 12/03 A2997 RMK AO2 SLP155 T01170028 TSNO
PATQ 161556Z AUTO 22007KT 10SM BKN046 09/04 A2997 RMK AO2 SLP157 T00940039 TSNO